Time;durP1;ratioP1;P1;durP2;ratioP2;P2;SDS_P1;SDS_P2;PMS_P1;PMS_P2;Temp;Humidity;BMP_temperature;BMP_pressure;BME280_temperature;BME280_humidity;BME280_pressure;Samples;Min_cycle;Max_cycle;Signal;HPM_P1;HPM_P2
2022/05/15 00:01:10;;;;;;;6.43;5.00;;;;;;;;;;5061051;28;20037;-68
2022/05/15 00:03:40;;;;;;;8.80;5.70;;;;;;;;;;5051025;28;20380;-67
2022/05/15 00:06:06;;;;;;;9.88;5.65;;;;;;;;;;5051995;28;20033;-67
2022/05/15 00:08:36;;;;;;;5.82;5.25;;;;;;;;;;5051899;28;20032;-69
2022/05/15 00:11:03;;;;;;;6.55;5.13;;;;;;;;;;5050467;28;20033;-68
2022/05/15 00:13:29;;;;;;;6.43;4.68;;;;;;;;;;5051681;28;20025;-68
2022/05/15 00:15:55;;;;;;;10.40;5.35;;;;;;;;;;5051870;28;20053;-68
2022/05/15 00:18:22;;;;;;;8.93;5.53;;;;;;;;;;5051451;28;20029;-67
2022/05/15 00:20:49;;;;;;;7.90;4.80;;;;;;;;;;5051546;28;20033;-69
2022/05/15 00:23:17;;;;;;;7.20;5.15;;;;;;;;;;5051828;28;20025;-68
2022/05/15 00:25:43;;;;;;;11.07;5.25;;;;;;;;;;5051725;28;20495;-67
2022/05/15 00:28:09;;;;;;;6.70;4.70;;;;;;;;;;5051735;28;20033;-69
2022/05/15 00:30:36;;;;;;;7.35;4.78;;;;;;;;;;5051802;28;20033;-68
2022/05/15 00:33:03;;;;;;;6.75;5.35;;;;;;;;;;5052012;28;20021;-69
2022/05/15 00:35:30;;;;;;;7.07;4.72;;;;;;;;;;5052040;28;20037;-68
2022/05/15 00:37:56;;;;;;;8.60;5.80;;;;;;;;;;5050380;28;20521;-68
2022/05/15 00:40:23;;;;;;;10.68;5.78;;;;;;;;;;5051508;28;20460;-69
2022/05/15 00:42:49;;;;;;;7.70;5.35;;;;;;;;;;5050553;28;20021;-74
2022/05/15 00:45:18;;;;;;;9.13;6.07;;;;;;;;;;5051534;28;20029;-72
2022/05/15 00:47:44;;;;;;;12.75;5.82;;;;;;;;;;5051373;28;20028;-71
2022/05/15 00:50:17;;;;;;;9.18;5.95;;;;;;;;;;5051579;28;20028;-70
2022/05/15 00:52:48;;;;;;;9.50;5.60;;;;;;;;;;5050335;28;20040;-74
2022/05/15 00:55:24;;;;;;;6.82;5.63;;;;;;;;;;5050268;28;20111;-69
2022/05/15 00:58:00;;;;;;;6.72;5.30;;;;;;;;;;5050183;28;20135;-73
2022/05/15 01:00:33;;;;;;;7.32;5.63;;;;;;;;;;5051650;28;20505;-73
2022/05/15 01:03:20;;;;;;;6.90;5.72;;;;;;;;;;5051620;28;20052;-72
2022/05/15 01:05:51;;;;;;;8.02;5.68;;;;;;;;;;5051452;28;20041;-70
2022/05/15 01:08:19;;;;;;;6.85;4.88;;;;;;;;;;5033598;28;20033;-70
2022/05/15 01:10:51;;;;;;;8.18;5.35;;;;;;;;;;5050092;28;20116;-74
2022/05/15 01:13:19;;;;;;;11.88;5.88;;;;;;;;;;5049715;28;20503;-74
2022/05/15 01:15:47;;;;;;;9.90;5.18;;;;;;;;;;5051371;28;20087;-74
2022/05/15 01:18:24;;;;;;;7.63;4.97;;;;;;;;;;5053455;28;20395;-75
2022/05/15 01:20:56;;;;;;;8.20;5.53;;;;;;;;;;5053809;28;20125;-74
2022/05/15 01:23:22;;;;;;;9.02;5.15;;;;;;;;;;5053738;28;20063;-74
2022/05/15 01:25:49;;;;;;;12.45;6.00;;;;;;;;;;5053688;28;20028;-73
2022/05/15 01:28:21;;;;;;;8.90;5.40;;;;;;;;;;5054771;28;20033;-74
2022/05/15 01:30:49;;;;;;;8.95;6.10;;;;;;;;;;5053789;28;20037;-69
2022/05/15 01:33:17;;;;;;;9.93;6.50;;;;;;;;;;5053571;28;20029;-70
2022/05/15 01:35:43;;;;;;;6.40;5.53;;;;;;;;;;5053470;28;20488;-71
2022/05/15 01:38:10;;;;;;;10.27;5.75;;;;;;;;;;5053426;28;20028;-74
2022/05/15 01:40:37;;;;;;;10.88;6.85;;;;;;;;;;5053189;28;20048;-72
2022/05/15 01:43:05;;;;;;;10.60;6.63;;;;;;;;;;5053371;28;20029;-67
2022/05/15 01:45:31;;;;;;;8.05;5.90;;;;;;;;;;5053489;28;20033;-68
2022/05/15 01:47:58;;;;;;;10.90;6.05;;;;;;;;;;5053473;28;20031;-67
2022/05/15 01:50:24;;;;;;;6.63;5.55;;;;;;;;;;5053408;28;20114;-67
2022/05/15 01:52:50;;;;;;;11.48;5.50;;;;;;;;;;5053156;28;20467;-67
2022/05/15 01:55:17;;;;;;;7.82;6.43;;;;;;;;;;5052893;28;20033;-67
2022/05/15 01:57:44;;;;;;;13.40;7.18;;;;;;;;;;5053218;28;20037;-69
2022/05/15 02:00:15;;;;;;;8.13;6.43;;;;;;;;;;5053042;28;20498;-67
2022/05/15 02:02:41;;;;;;;11.57;7.07;;;;;;;;;;5052889;28;20032;-66
2022/05/15 02:05:09;;;;;;;10.10;7.50;;;;;;;;;;5052954;28;20249;-67
2022/05/15 02:07:35;;;;;;;9.82;7.60;;;;;;;;;;5052736;28;20396;-67
2022/05/15 02:10:03;;;;;;;13.43;7.50;;;;;;;;;;5052808;28;20032;-68
2022/05/15 02:12:29;;;;;;;16.10;6.72;;;;;;;;;;5052607;28;20037;-69
2022/05/15 02:14:56;;;;;;;11.27;7.43;;;;;;;;;;5052791;28;20483;-69
2022/05/15 02:17:22;;;;;;;14.85;8.38;;;;;;;;;;5052839;28;20449;-67
2022/05/15 02:19:48;;;;;;;9.18;7.40;;;;;;;;;;5052779;28;20060;-67
2022/05/15 02:22:15;;;;;;;9.23;7.28;;;;;;;;;;5052967;28;20380;-69
2022/05/15 02:24:42;;;;;;;11.77;8.15;;;;;;;;;;5054724;28;20028;-70
2022/05/15 02:27:08;;;;;;;11.60;8.82;;;;;;;;;;5071637;28;20090;-67
2022/05/15 02:29:34;;;;;;;11.88;7.50;;;;;;;;;;5074193;28;20395;-66
2022/05/15 02:32:00;;;;;;;9.43;6.90;;;;;;;;;;5072535;28;20540;-66
2022/05/15 02:34:26;;;;;;;8.30;6.70;;;;;;;;;;5073804;28;20472;-70
2022/05/15 02:36:52;;;;;;;8.57;7.03;;;;;;;;;;5072495;28;20387;-69
2022/05/15 02:39:18;;;;;;;7.85;6.55;;;;;;;;;;5073616;28;20032;-74
2022/05/15 02:41:44;;;;;;;11.60;6.93;;;;;;;;;;5073718;28;20368;-74
2022/05/15 02:44:10;;;;;;;9.13;6.72;;;;;;;;;;5072199;28;20036;-74
2022/05/15 02:46:36;;;;;;;11.13;6.72;;;;;;;;;;5072287;28;20040;-70
2022/05/15 02:51:48;;;;;;;8.77;7.45;;;;;;;;;;5072222;28;20089;-69
2022/05/15 02:54:14;;;;;;;7.50;6.72;;;;;;;;;;5072118;28;20031;-73
2022/05/15 02:56:40;;;;;;;11.07;7.82;;;;;;;;;;5073131;28;20044;-72
2022/05/15 02:59:06;;;;;;;9.00;6.85;;;;;;;;;;5073451;28;20436;-73
2022/05/15 03:01:33;;;;;;;9.70;6.80;;;;;;;;;;5073207;28;20040;-72
2022/05/15 03:04:00;;;;;;;8.35;6.40;;;;;;;;;;5071748;28;20025;-74
2022/05/15 03:06:26;;;;;;;11.15;6.80;;;;;;;;;;5071735;28;20040;-71
2022/05/15 03:08:52;;;;;;;11.45;6.82;;;;;;;;;;5072044;28;20036;-73
2022/05/15 03:11:19;;;;;;;8.68;7.22;;;;;;;;;;5071688;28;20045;-73
2022/05/15 03:13:45;;;;;;;14.02;7.72;;;;;;;;;;5071266;28;20115;-71
2022/05/15 03:16:13;;;;;;;12.00;7.53;;;;;;;;;;5072607;28;20060;-69
2022/05/15 03:18:46;;;;;;;11.65;6.82;;;;;;;;;;5072892;28;20134;-72
2022/05/15 03:21:28;;;;;;;;;;;;;;;;;;5071848;28;20376;-70
2022/05/15 03:24:01;;;;;;;13.63;7.97;;;;;;;;;;5071190;28;19923;-69
2022/05/15 03:26:29;;;;;;;9.13;7.25;;;;;;;;;;5071233;28;20040;-68
2022/05/15 03:28:55;;;;;;;8.65;7.75;;;;;;;;;;5072911;28;20024;-69
2022/05/15 03:31:21;;;;;;;13.00;8.27;;;;;;;;;;5071170;28;20086;-67
2022/05/15 03:33:47;;;;;;;12.90;8.80;;;;;;;;;;5070980;28;20021;-67
2022/05/15 03:36:15;;;;;;;11.40;9.20;;;;;;;;;;5071225;28;20033;-66
2022/05/15 03:38:43;;;;;;;11.82;8.65;;;;;;;;;;5071045;28;20070;-68
2022/05/15 03:41:09;;;;;;;13.93;8.30;;;;;;;;;;5072732;28;20382;-69
2022/05/15 03:43:35;;;;;;;10.48;8.30;;;;;;;;;;5072108;28;20058;-68
2022/05/15 03:46:06;;;;;;;10.27;8.02;;;;;;;;;;5069315;28;20059;-69
2022/05/15 03:48:33;;;;;;;11.93;8.88;;;;;;;;;;5072530;28;20032;-70
2022/05/15 03:50:59;;;;;;;13.18;7.28;;;;;;;;;;5072487;28;20021;-70
2022/05/15 03:53:27;;;;;;;10.70;8.23;;;;;;;;;;5072331;28;20048;-67
2022/05/15 03:55:56;;;;;;;10.90;7.05;;;;;;;;;;5072057;28;20076;-69
2022/05/15 03:58:25;;;;;;;9.05;6.90;;;;;;;;;;5071689;28;20483;-69
2022/05/15 04:00:51;;;;;;;11.30;6.88;;;;;;;;;;5072104;28;20492;-68
2022/05/15 04:03:17;;;;;;;9.82;7.18;;;;;;;;;;5071857;28;20035;-69
2022/05/15 04:05:43;;;;;;;11.32;7.00;;;;;;;;;;5071573;28;20029;-67
2022/05/15 04:08:10;;;;;;;9.77;7.13;;;;;;;;;;5071666;28;20033;-67
2022/05/15 04:10:37;;;;;;;9.88;6.88;;;;;;;;;;5071358;28;20155;-67
2022/05/15 04:13:04;;;;;;;10.23;6.55;;;;;;;;;;5061731;28;20029;-68
2022/05/15 04:15:30;;;;;;;10.45;7.10;;;;;;;;;;5059222;28;20052;-69
2022/05/15 04:17:56;;;;;;;10.43;6.20;;;;;;;;;;5055829;28;20032;-70
2022/05/15 04:20:25;;;;;;;9.73;6.97;;;;;;;;;;5057875;28;20067;-70
2022/05/15 04:22:51;;;;;;;13.57;6.35;;;;;;;;;;5050331;28;20589;-67
2022/05/15 04:25:18;;;;;;;8.68;7.75;;;;;;;;;;5062304;28;20078;-68
2022/05/15 04:27:44;;;;;;;8.88;6.60;;;;;;;;;;5070557;28;20033;-68
2022/05/15 04:30:13;;;;;;;11.13;6.75;;;;;;;;;;5070654;28;20031;-68
2022/05/15 04:32:41;;;;;;;9.70;6.35;;;;;;;;;;5066181;28;20033;-68
2022/05/15 04:35:08;;;;;;;8.75;6.93;;;;;;;;;;5050337;28;20087;-68
2022/05/15 04:37:35;;;;;;;10.55;6.53;;;;;;;;;;5051830;28;20119;-68
2022/05/15 04:40:01;;;;;;;8.43;6.47;;;;;;;;;;5051525;28;20100;-75
2022/05/15 04:42:27;;;;;;;9.45;6.80;;;;;;;;;;5051281;28;20029;-67
2022/05/15 04:44:53;;;;;;;13.27;6.38;;;;;;;;;;5051256;28;20078;-71
2022/05/15 04:47:18;;;;;;;9.75;5.88;;;;;;;;;;5051431;28;20037;-71
2022/05/15 04:49:44;;;;;;;9.50;6.15;;;;;;;;;;5051065;28;20101;-70
2022/05/15 04:52:11;;;;;;;8.38;5.88;;;;;;;;;;5054815;28;20481;-70
2022/05/15 04:54:38;;;;;;;9.13;6.75;;;;;;;;;;5054480;28;20029;-74
2022/05/15 04:57:05;;;;;;;9.20;6.57;;;;;;;;;;5054628;28;20080;-71
2022/05/15 04:59:31;;;;;;;13.57;6.82;;;;;;;;;;5056292;28;20502;-73
2022/05/15 05:01:58;;;;;;;13.77;7.25;;;;;;;;;;5055910;28;20495;-75
2022/05/15 05:04:25;;;;;;;8.95;7.00;;;;;;;;;;5055923;28;20043;-75
2022/05/15 05:06:51;;;;;;;9.38;6.38;;;;;;;;;;5056144;28;20044;-72
2022/05/15 05:09:17;;;;;;;13.00;6.63;;;;;;;;;;5056221;28;20025;-75
2022/05/15 05:11:43;;;;;;;10.10;6.68;;;;;;;;;;5056213;28;20033;-77
2022/05/15 05:14:09;;;;;;;9.70;7.45;;;;;;;;;;5056541;28;20031;-67
2022/05/15 05:16:35;;;;;;;9.27;6.53;;;;;;;;;;5056213;28;20476;-70
2022/05/15 05:19:03;;;;;;;8.18;6.43;;;;;;;;;;5056398;28;20032;-71
2022/05/15 05:21:30;;;;;;;9.13;6.68;;;;;;;;;;5056233;28;20061;-69
2022/05/15 05:23:56;;;;;;;8.82;6.65;;;;;;;;;;5056190;28;20029;-69
2022/05/15 05:26:22;;;;;;;11.15;7.22;;;;;;;;;;5056042;28;20037;-74
2022/05/15 05:28:48;;;;;;;8.10;5.97;;;;;;;;;;5056118;28;20415;-69
2022/05/15 05:31:15;;;;;;;8.57;6.10;;;;;;;;;;5055986;28;20043;-66
2022/05/15 05:33:40;;;;;;;8.68;6.00;;;;;;;;;;5055829;28;20020;-69
2022/05/15 05:36:07;;;;;;;7.22;6.10;;;;;;;;;;5055672;28;20044;-68
2022/05/15 05:38:34;;;;;;;13.82;6.60;;;;;;;;;;5055745;28;20032;-71
2022/05/15 05:41:00;;;;;;;13.43;7.10;;;;;;;;;;5055783;28;20037;-70
2022/05/15 05:43:26;;;;;;;8.52;6.05;;;;;;;;;;5055735;28;20487;-68
2022/05/15 05:45:52;;;;;;;10.18;6.47;;;;;;;;;;5055533;28;20392;-69
2022/05/15 05:48:18;;;;;;;8.23;6.00;;;;;;;;;;5055462;28;20384;-69
2022/05/15 05:50:44;;;;;;;9.75;5.78;;;;;;;;;;5055225;28;20041;-68
2022/05/15 05:53:10;;;;;;;13.43;6.65;;;;;;;;;;5055437;28;20032;-69
2022/05/15 05:55:36;;;;;;;9.88;6.15;;;;;;;;;;5055427;28;20051;-72
2022/05/15 05:58:02;;;;;;;8.48;6.43;;;;;;;;;;5055325;28;20029;-74
2022/05/15 06:00:33;;;;;;;13.35;6.53;;;;;;;;;;5056260;28;20032;-70
2022/05/15 06:05:44;;;;;;;11.38;7.65;;;;;;;;;;5074774;28;20036;-67
2022/05/15 06:08:10;;;;;;;11.52;7.85;;;;;;;;;;5074953;28;20070;-68
2022/05/15 06:10:37;;;;;;;10.10;6.97;;;;;;;;;;5072725;28;20040;-67
2022/05/15 06:13:03;;;;;;;9.48;6.80;;;;;;;;;;5056538;28;20035;-69
2022/05/15 06:15:29;;;;;;;8.98;7.20;;;;;;;;;;5069221;28;20044;-68
2022/05/15 06:17:59;;;;;;;11.07;5.60;;;;;;;;;;5054492;28;20025;-69
2022/05/15 06:20:26;;;;;;;6.28;5.63;;;;;;;;;;5054961;28;20464;-67
2022/05/15 06:22:51;;;;;;;7.75;5.93;;;;;;;;;;5054827;28;20162;-69
2022/05/15 06:25:17;;;;;;;7.97;6.07;;;;;;;;;;5054755;28;20109;-69
2022/05/15 06:27:43;;;;;;;8.60;6.40;;;;;;;;;;5054375;28;20017;-68
2022/05/15 06:30:12;;;;;;;11.60;6.20;;;;;;;;;;5053982;28;20041;-74
2022/05/15 06:32:39;;;;;;;10.27;5.78;;;;;;;;;;5054884;28;20478;-67
2022/05/15 06:35:07;;;;;;;9.27;6.32;;;;;;;;;;5054491;28;20100;-68
2022/05/15 06:37:33;;;;;;;9.90;6.35;;;;;;;;;;5060234;28;20052;-74
2022/05/15 06:39:59;;;;;;;9.10;5.30;;;;;;;;;;5074478;28;20039;-76
2022/05/15 06:42:28;;;;;;;7.28;4.70;;;;;;;;;;5073214;28;20016;-72
2022/05/15 06:44:55;;;;;;;6.85;5.05;;;;;;;;;;5064788;28;20037;-75
2022/05/15 06:47:23;;;;;;;6.93;5.18;;;;;;;;;;5066663;28;20379;-75
2022/05/15 06:49:49;;;;;;;6.03;4.68;;;;;;;;;;5055279;27;20029;-72
2022/05/15 06:52:15;;;;;;;7.82;5.20;;;;;;;;;;5053653;28;20480;-76
2022/05/15 06:54:41;;;;;;;6.80;5.20;;;;;;;;;;5058077;28;20501;-69
2022/05/15 06:59:52;;;;;;;8.10;4.78;;;;;;;;;;5055636;28;20025;-67
2022/05/15 07:02:18;;;;;;;5.30;4.47;;;;;;;;;;5054807;28;20029;-68
2022/05/15 07:04:44;;;;;;;6.97;4.60;;;;;;;;;;5063447;28;20036;-67
2022/05/15 07:07:10;;;;;;;6.90;4.68;;;;;;;;;;5059196;28;20036;-67
2022/05/15 07:09:36;;;;;;;8.05;4.70;;;;;;;;;;5053164;28;20112;-66
2022/05/15 07:12:03;;;;;;;6.88;4.57;;;;;;;;;;5053624;28;20361;-67
2022/05/15 07:14:29;;;;;;;6.18;4.53;;;;;;;;;;5060699;28;20037;-73
2022/05/15 07:16:55;;;;;;;6.55;4.25;;;;;;;;;;5064577;28;20494;-68
2022/05/15 07:19:21;;;;;;;6.30;4.47;;;;;;;;;;5073267;28;20044;-68
2022/05/15 07:21:47;;;;;;;7.18;4.30;;;;;;;;;;5073208;28;20531;-67
2022/05/15 07:24:13;;;;;;;5.97;4.05;;;;;;;;;;5072116;28;20033;-67
2022/05/15 07:26:44;;;;;;;6.55;4.55;;;;;;;;;;5076361;28;20025;-68
2022/05/15 07:29:10;;;;;;;5.38;4.47;;;;;;;;;;5070725;28;20040;-71
2022/05/15 07:31:36;;;;;;;7.13;4.00;;;;;;;;;;5065695;28;20552;-71
2022/05/15 07:34:01;;;;;;;5.70;4.78;;;;;;;;;;5073404;28;20067;-73
2022/05/15 07:36:27;;;;;;;10.32;5.25;;;;;;;;;;5070609;28;20104;-72
2022/05/15 07:38:53;;;;;;;5.97;4.78;;;;;;;;;;5052955;28;20037;-72
2022/05/15 07:41:19;;;;;;;9.57;4.57;;;;;;;;;;5053085;28;20029;-74
2022/05/15 07:43:45;;;;;;;6.10;4.95;;;;;;;;;;5053038;28;20039;-73
2022/05/15 07:46:11;;;;;;;15.02;5.40;;;;;;;;;;5052706;28;20333;-73
2022/05/15 07:48:37;;;;;;;6.38;4.60;;;;;;;;;;5052536;28;20036;-73
2022/05/15 07:51:03;;;;;;;7.63;5.10;;;;;;;;;;5052419;28;20083;-72
2022/05/15 07:53:29;;;;;;;10.23;5.18;;;;;;;;;;5056078;28;20102;-72
2022/05/15 07:55:59;;;;;;;7.18;5.05;;;;;;;;;;5087772;28;20056;-72
2022/05/15 07:58:25;;;;;;;7.43;4.80;;;;;;;;;;5060457;28;20033;-71
2022/05/15 08:00:53;;;;;;;7.80;5.15;;;;;;;;;;5062855;28;20082;-71
2022/05/15 08:03:20;;;;;;;8.07;4.95;;;;;;;;;;5052609;28;20033;-72
2022/05/15 08:08:30;;;;;;;7.40;5.55;;;;;;;;;;5052813;28;20390;-71
2022/05/15 08:10:56;;;;;;;9.18;5.47;;;;;;;;;;5058166;28;20091;-73
2022/05/15 08:13:29;;;;;;;10.30;5.90;;;;;;;;;;5073280;28;20084;-74
2022/05/15 08:15:55;;;;;;;10.27;5.88;;;;;;;;;;5052129;28;20373;-72
2022/05/15 08:23:56;;;;;;;6.78;5.70;;;;;;;;;;5052427;28;20406;-71
2022/05/15 08:26:23;;;;;;;7.15;4.90;;;;;;;;;;5050382;28;20539;-72
2022/05/15 08:28:49;;;;;;;7.35;4.75;;;;;;;;;;5057821;28;20033;-72
2022/05/15 08:31:17;;;;;;;9.88;5.28;;;;;;;;;;5051849;28;20332;-72
2022/05/15 08:33:44;;;;;;;8.95;5.82;;;;;;;;;;5052358;28;20094;-74
2022/05/15 08:36:10;;;;;;;8.20;5.47;;;;;;;;;;5051826;28;20041;-74
2022/05/15 08:38:37;;;;;;;9.57;5.43;;;;;;;;;;5052014;28;20074;-73
2022/05/15 08:41:17;;;;;;;7.82;4.95;;;;;;;;;;5053525;28;20029;-74
2022/05/15 08:44:26;;;;;;;10.13;5.38;;;;;;;;;;5052188;28;20029;-75
2022/05/15 08:47:13;;;;;;;7.60;5.15;;;;;;;;;;5070165;28;20033;-73
2022/05/15 08:49:46;;;;;;;8.15;5.18;;;;;;;;;;5070072;28;20040;-73
2022/05/15 08:52:16;;;;;;;9.85;5.20;;;;;;;;;;5073852;28;20035;-73
2022/05/15 08:55:06;;;;;;;8.23;5.50;;;;;;;;;;5070126;28;20418;-73
2022/05/15 08:57:55;;;;;;;9.75;5.30;;;;;;;;;;5071796;28;20037;-72
2022/05/15 09:00:31;;;;;;;8.05;4.53;;;;;;;;;;5069940;28;20028;-72
2022/05/15 09:03:19;;;;;;;8.77;5.10;;;;;;;;;;5062766;28;20033;-73
2022/05/15 09:05:54;;;;;;;7.95;4.78;;;;;;;;;;5051580;28;20474;-73
2022/05/15 09:08:42;;;;;;;7.40;5.18;;;;;;;;;;5067935;28;20033;-72
2022/05/15 09:11:09;;;;;;;7.03;4.75;;;;;;;;;;5056836;28;20509;-72
2022/05/15 09:14:07;;;;;;;5.82;4.70;;;;;;;;;;5049423;28;20521;-72
2022/05/15 09:16:35;;;;;;;6.25;4.80;;;;;;;;;;5049988;28;20508;-72
2022/05/15 09:19:02;;;;;;;11.05;5.15;;;;;;;;;;5051944;28;20025;-72
2022/05/15 09:21:28;;;;;;;10.75;5.18;;;;;;;;;;5058562;28;20037;-73
2022/05/15 09:23:57;;;;;;;7.82;4.35;;;;;;;;;;5052195;28;20162;-72
2022/05/15 09:26:44;;;;;;;7.35;4.28;;;;;;;;;;5050184;28;20118;-73
2022/05/15 09:29:28;;;;;;;8.27;4.47;;;;;;;;;;5051694;28;20490;-72
2022/05/15 09:31:54;;;;;;;7.63;4.45;;;;;;;;;;5051925;28;20495;-72
2022/05/15 09:34:23;;;;;;;8.57;4.65;;;;;;;;;;5051607;28;20029;-73
2022/05/15 09:36:51;;;;;;;7.70;4.50;;;;;;;;;;5053094;28;20029;-73
2022/05/15 09:39:38;;;;;;;5.57;3.97;;;;;;;;;;5068848;28;20044;-74
2022/05/15 09:44:51;;;;;;;7.50;4.20;;;;;;;;;;5075293;28;20040;-71
2022/05/15 09:47:29;;;;;;;8.40;4.65;;;;;;;;;;5075369;28;20043;-74
2022/05/15 09:49:55;;;;;;;5.93;3.97;;;;;;;;;;5075389;28;20044;-73
2022/05/15 09:52:42;;;;;;;4.47;3.50;;;;;;;;;;5075303;28;20382;-73
2022/05/15 09:55:12;;;;;;;7.13;3.47;;;;;;;;;;5075143;28;20056;-74
2022/05/15 09:57:53;;;;;;;6.82;4.05;;;;;;;;;;5074006;28;20506;-74
2022/05/15 10:00:22;;;;;;;6.97;3.80;;;;;;;;;;5075514;28;20106;-74
2022/05/15 10:02:54;;;;;;;5.53;3.88;;;;;;;;;;5075028;28;20052;-73
2022/05/15 10:05:33;;;;;;;4.53;3.35;;;;;;;;;;5074907;28;20040;-73
2022/05/15 10:08:19;;;;;;;5.00;3.40;;;;;;;;;;5073565;28;20075;-73
2022/05/15 10:11:11;;;;;;;6.47;4.30;;;;;;;;;;5074968;28;20368;-73
2022/05/15 10:13:44;;;;;;;7.35;4.20;;;;;;;;;;5074923;28;20032;-74
2022/05/15 10:16:15;;;;;;;;;;;;;;;;;;5075215;28;20044;-74
2022/05/15 10:19:19;;;;;;;8.05;3.95;;;;;;;;;;5074626;28;20279;-73
2022/05/15 10:21:57;;;;;;;5.07;3.50;;;;;;;;;;5074445;28;20148;-74
2022/05/15 10:24:28;;;;;;;5.07;3.80;;;;;;;;;;5074878;28;20101;-74
2022/05/15 10:27:10;;;;;;;5.22;3.30;;;;;;;;;;5074970;28;20024;-75
2022/05/15 10:30:00;;;;;;;6.40;4.07;;;;;;;;;;5074919;28;20127;-76
2022/05/15 10:32:34;;;;;;;5.57;4.03;;;;;;;;;;5074986;28;20040;-77
2022/05/15 10:35:00;;;;;;;6.50;3.78;;;;;;;;;;5074629;28;20033;-75
2022/05/15 10:37:44;;;;;;;5.65;4.72;;;;;;;;;;5074371;28;20025;-73
2022/05/15 10:40:31;;;;;;;7.15;3.47;;;;;;;;;;5074383;28;20032;-73
2022/05/15 10:43:35;;;;;;;8.95;5.00;;;;;;;;;;5074460;28;20036;-73
2022/05/15 10:46:26;;;;;;;14.55;10.60;;;;;;;;;;5074294;28;20039;-74
2022/05/15 10:49:10;;;;;;;8.07;3.60;;;;;;;;;;5073446;28;20078;-75
2022/05/15 10:52:02;;;;;;;7.57;4.55;;;;;;;;;;5074301;28;20166;-75
2022/05/15 10:57:43;;;;;;;6.63;4.20;;;;;;;;;;5074265;28;20423;-74
2022/05/15 11:00:33;;;;;;;10.73;3.67;;;;;;;;;;5073988;28;20047;-75
2022/05/15 11:03:25;;;;;;;5.68;3.35;;;;;;;;;;5074006;28;20035;-76
2022/05/15 11:06:45;;;;;;;6.20;3.88;;;;;;;;;;5072814;28;20032;-75
2022/05/15 11:09:24;;;;;;;7.30;3.10;;;;;;;;;;5071792;28;20044;-74
2022/05/15 11:12:14;;;;;;;3.88;3.10;;;;;;;;;;5073919;28;20039;-75
2022/05/15 11:15:00;;;;;;;5.80;2.88;;;;;;;;;;5073902;28;20086;-77
2022/05/15 11:17:49;;;;;;;6.32;3.40;;;;;;;;;;5073790;28;20035;-77
2022/05/15 11:20:22;;;;;;;6.28;3.67;;;;;;;;;;5073858;28;20032;-76
2022/05/15 11:22:51;;;;;;;5.63;3.25;;;;;;;;;;5073654;28;20035;-78
2022/05/15 11:25:57;;;;;;;4.15;3.28;;;;;;;;;;5073814;28;20083;-76
2022/05/15 11:28:30;;;;;;;5.65;4.00;;;;;;;;;;5072561;28;20090;-77
2022/05/15 11:31:25;;;;;;;7.05;4.50;;;;;;;;;;5073379;28;20076;-74
2022/05/15 11:33:55;;;;;;;7.72;5.20;;;;;;;;;;5072751;28;20040;-77
2022/05/15 11:36:21;;;;;;;7.57;3.10;;;;;;;;;;5073003;28;20530;-77
2022/05/15 11:39:09;;;;;;;8.43;3.60;;;;;;;;;;5073398;28;20092;-76
2022/05/15 11:41:34;;;;;;;5.47;3.00;;;;;;;;;;5066075;28;20036;-78
2022/05/15 11:44:09;;;;;;;5.70;3.03;;;;;;;;;;5073059;28;20047;-75
2022/05/15 11:46:47;;;;;;;4.75;3.25;;;;;;;;;;5073224;28;20033;-75
2022/05/15 11:49:17;;;;;;;4.80;2.90;;;;;;;;;;5072502;28;20355;-75
2022/05/15 11:51:56;;;;;;;7.03;2.97;;;;;;;;;;5072424;28;20042;-74
2022/05/15 11:54:33;;;;;;;4.68;3.13;;;;;;;;;;5072676;28;20534;-76
2022/05/15 11:57:01;;;;;;;9.40;2.80;;;;;;;;;;5072822;28;20041;-78
2022/05/15 11:59:33;;;;;;;4.72;3.20;;;;;;;;;;5073034;28;20032;-77
2022/05/15 12:02:12;;;;;;;8.65;3.40;;;;;;;;;;5072733;28;20028;-77
2022/05/15 12:04:38;;;;;;;4.70;2.80;;;;;;;;;;5072425;28;20040;-78
2022/05/15 12:07:04;;;;;;;3.63;2.72;;;;;;;;;;5072576;28;20372;-76
2022/05/15 12:09:32;;;;;;;6.70;3.10;;;;;;;;;;5072764;28;20029;-76
2022/05/15 12:12:24;;;;;;;7.07;3.80;;;;;;;;;;5072759;28;20024;-76
2022/05/15 12:15:25;;;;;;;8.18;3.30;;;;;;;;;;5072651;28;20052;-76
2022/05/15 12:17:50;;;;;;;3.60;2.83;;;;;;;;;;5072533;28;20063;-74
2022/05/15 12:20:28;;;;;;;3.92;2.83;;;;;;;;;;5071412;28;20404;-74
2022/05/15 12:22:57;;;;;;;4.03;3.00;;;;;;;;;;5072591;28;20059;-75
2022/05/15 12:25:30;;;;;;;6.75;3.33;;;;;;;;;;5072674;28;20090;-78
2022/05/15 12:31:10;;;;;;;4.13;2.80;;;;;;;;;;5072726;28;20035;-77
2022/05/15 12:33:40;;;;;;;3.85;2.85;;;;;;;;;;5072565;28;20036;-78
2022/05/15 12:36:16;;;;;;;4.47;2.90;;;;;;;;;;5072292;28;20198;-77
2022/05/15 12:38:50;;;;;;;6.88;3.05;;;;;;;;;;5072348;28;20040;-76
2022/05/15 12:41:32;;;;;;;7.07;3.10;;;;;;;;;;5072151;28;20052;-77
2022/05/15 12:44:00;;;;;;;5.97;3.20;;;;;;;;;;5072523;28;20048;-74
2022/05/15 12:46:35;;;;;;;4.65;2.92;;;;;;;;;;5072376;28;20033;-78
2022/05/15 12:49:03;;;;;;;4.60;2.95;;;;;;;;;;5072598;28;20037;-77
2022/05/15 12:51:37;;;;;;;4.55;3.00;;;;;;;;;;5072330;28;20422;-76
2022/05/15 12:54:23;;;;;;;5.75;2.92;;;;;;;;;;5072987;28;20037;-75
2022/05/15 12:57:01;;;;;;;11.07;3.35;;;;;;;;;;5072315;28;20489;-76
2022/05/15 12:59:29;;;;;;;4.93;2.85;;;;;;;;;;5072368;28;20036;-78
2022/05/15 13:01:55;;;;;;;5.25;2.90;;;;;;;;;;5072607;28;20025;-75
2022/05/15 13:04:25;;;;;;;4.68;2.78;;;;;;;;;;5072236;28;20445;-73
2022/05/15 13:06:54;;;;;;;3.63;3.10;;;;;;;;;;5071076;28;20039;-74
2022/05/15 13:09:28;;;;;;;8.38;3.13;;;;;;;;;;5072464;28;20116;-75
2022/05/15 13:11:57;;;;;;;5.28;3.30;;;;;;;;;;5074391;28;20086;-77
2022/05/15 13:14:36;;;;;;;3.90;3.17;;;;;;;;;;5076153;28;20040;-77
2022/05/15 13:17:04;;;;;;;3.97;3.03;;;;;;;;;;5075818;28;20040;-75
2022/05/15 13:19:49;;;;;;;5.53;3.25;;;;;;;;;;5076171;28;20024;-74
2022/05/15 13:22:25;;;;;;;5.25;3.05;;;;;;;;;;5076350;28;20082;-73
2022/05/15 13:25:00;;;;;;;4.80;3.08;;;;;;;;;;5076028;28;20482;-75
2022/05/15 13:27:27;;;;;;;4.18;3.20;;;;;;;;;;5075938;28;20391;-76
2022/05/15 13:29:53;;;;;;;3.55;2.90;;;;;;;;;;5075831;28;20031;-77
2022/05/15 13:32:19;;;;;;;6.28;3.08;;;;;;;;;;5076094;28;20465;-77
2022/05/15 13:34:47;;;;;;;5.05;3.00;;;;;;;;;;5076079;28;20520;-75
2022/05/15 13:37:35;;;;;;;5.90;3.13;;;;;;;;;;5074674;28;20438;-73
2022/05/15 13:45:48;;;;;;;3.70;2.65;;;;;;;;;;5075633;28;20064;-75
2022/05/15 13:48:14;;;;;;;5.28;3.17;;;;;;;;;;5075574;28;20032;-75
2022/05/15 13:50:46;;;;;;;5.40;3.28;;;;;;;;;;5075740;28;20030;-75
2022/05/15 13:53:31;;;;;;;5.83;3.10;;;;;;;;;;5075804;28;20032;-75
2022/05/15 13:56:06;;;;;;;5.68;3.03;;;;;;;;;;5075479;28;20487;-74
2022/05/15 13:58:49;;;;;;;4.93;2.90;;;;;;;;;;5075388;28;20039;-72
2022/05/15 14:01:18;;;;;;;;;;;;;;;;;;5075888;28;20035;-75
2022/05/15 14:03:44;;;;;;;3.50;2.60;;;;;;;;;;5075317;28;19912;-74
2022/05/15 14:06:19;;;;;;;5.80;2.72;;;;;;;;;;5075081;28;20128;-74
2022/05/15 14:08:57;;;;;;;7.07;3.03;;;;;;;;;;5074982;28;20037;-75
2022/05/15 14:11:23;;;;;;;5.72;2.90;;;;;;;;;;5074869;28;20070;-76
2022/05/15 14:13:51;;;;;;;5.32;2.92;;;;;;;;;;5075049;28;20017;-74
2022/05/15 14:16:21;;;;;;;6.07;2.90;;;;;;;;;;5074910;28;20078;-75
2022/05/15 14:18:47;;;;;;;4.22;2.83;;;;;;;;;;5075501;28;20431;-74
2022/05/15 14:21:15;;;;;;;5.45;3.10;;;;;;;;;;5075293;28;20112;-76
2022/05/15 14:23:41;;;;;;;4.28;2.90;;;;;;;;;;5073887;28;20025;-76
2022/05/15 14:26:10;;;;;;;5.28;2.88;;;;;;;;;;5075102;28;20120;-75
2022/05/15 14:28:37;;;;;;;3.97;2.80;;;;;;;;;;5074893;28;20028;-72
2022/05/15 14:31:02;;;;;;;5.15;2.65;;;;;;;;;;5075031;28;20544;-73
2022/05/15 14:33:28;;;;;;;4.70;2.88;;;;;;;;;;5075072;28;20028;-75
2022/05/15 14:35:56;;;;;;;6.55;2.90;;;;;;;;;;5074719;28;20032;-76
2022/05/15 14:38:22;;;;;;;4.30;2.97;;;;;;;;;;5074546;28;20020;-76
2022/05/15 14:40:48;;;;;;;4.88;2.80;;;;;;;;;;5074860;28;20036;-73
2022/05/15 14:43:14;;;;;;;6.18;3.30;;;;;;;;;;5074578;28;20025;-76
2022/05/15 14:45:47;;;;;;;3.95;2.75;;;;;;;;;;5074393;28;20482;-77
2022/05/15 14:48:16;;;;;;;4.80;2.58;;;;;;;;;;5074542;28;20081;-76
2022/05/15 14:50:44;;;;;;;6.05;2.90;;;;;;;;;;5074306;28;20063;-75
2022/05/15 14:53:12;;;;;;;7.28;2.83;;;;;;;;;;5074245;28;20044;-75
2022/05/15 14:58:23;;;;;;;4.75;2.70;;;;;;;;;;5074178;28;20104;-78
2022/05/15 15:00:48;;;;;;;6.70;3.10;;;;;;;;;;5074022;28;20036;-74
2022/05/15 15:03:14;;;;;;;6.55;2.90;;;;;;;;;;5074080;28;20040;-73
2022/05/15 15:05:47;;;;;;;6.07;2.85;;;;;;;;;;5073839;28;20470;-73
2022/05/15 15:08:24;;;;;;;4.93;2.90;;;;;;;;;;5073796;28;20029;-73
2022/05/15 15:11:28;;;;;;;5.43;2.90;;;;;;;;;;5074049;28;20025;-72
2022/05/15 15:14:00;;;;;;;5.07;2.60;;;;;;;;;;5068340;28;20041;-75
2022/05/15 15:16:29;;;;;;;4.97;2.65;;;;;;;;;;5073691;28;20491;-75
2022/05/15 15:18:55;;;;;;;5.35;2.95;;;;;;;;;;5073794;28;20066;-78
2022/05/15 15:21:23;;;;;;;4.55;2.63;;;;;;;;;;5073977;28;20037;-76
2022/05/15 15:23:50;;;;;;;4.47;2.60;;;;;;;;;;5073574;28;20379;-75
2022/05/15 15:26:16;;;;;;;4.85;2.67;;;;;;;;;;5073464;28;20036;-77
2022/05/15 15:28:43;;;;;;;4.78;2.53;;;;;;;;;;5073446;28;20056;-73
2022/05/15 15:31:09;;;;;;;4.65;2.65;;;;;;;;;;5073756;28;20173;-75
2022/05/15 15:33:37;;;;;;;4.85;2.88;;;;;;;;;;5073451;28;20431;-71
2022/05/15 15:36:03;;;;;;;6.80;2.90;;;;;;;;;;5065417;28;20141;-76